Time;durP1;ratioP1;P1;durP2;ratioP2;P2;SDS_P1;SDS_P2;PMS_P1;PMS_P2;Temp;Humidity;BMP_temperature;BMP_pressure;BME280_temperature;BME280_humidity;BME280_pressure;Samples;Min_cycle;Max_cycle;Signal;HPM_P1;HPM_P2
2022/08/26 00:01:13;;;;;;;23.67;8.13;;;21.10;99.90;;;;;;5261386;28;20185;-51
2022/08/26 00:03:43;;;;;;;30.77;9.60;;;21.10;99.90;;;;;;5255642;28;20185;-48
2022/08/26 00:06:14;;;;;;;12.53;7.97;;;21.10;99.90;;;;;;5257613;28;20444;-49
2022/08/26 00:08:45;;;;;;;12.83;9.13;;;21.00;99.90;;;;;;5261206;28;20264;-49
2022/08/26 00:11:16;;;;;;;26.17;8.87;;;21.00;99.90;;;;;;5255963;28;20841;-50
2022/08/26 00:13:46;;;;;;;17.03;9.20;;;21.00;99.90;;;;;;5264590;28;20574;-49
2022/08/26 00:16:17;;;;;;;14.60;8.37;;;21.00;99.90;;;;;;5271594;28;20269;-51
2022/08/26 00:18:48;;;;;;;14.10;9.30;;;21.00;99.90;;;;;;5261688;28;20523;-49
2022/08/26 00:21:19;;;;;;;15.70;9.40;;;20.90;99.90;;;;;;5239993;28;20654;-49
2022/08/26 00:23:50;;;;;;;24.30;10.30;;;20.90;99.90;;;;;;5269136;28;20436;-49
2022/08/26 00:26:21;;;;;;;14.13;8.90;;;20.90;99.90;;;;;;5262700;28;20286;-50
2022/08/26 00:28:51;;;;;;;27.23;11.50;;;20.90;99.90;;;;;;5258184;28;20656;-49
2022/08/26 00:31:22;;;;;;;18.97;9.27;;;20.90;99.90;;;;;;5253581;28;20524;-49
2022/08/26 00:33:52;;;;;;;18.37;8.97;;;20.80;99.90;;;;;;5263007;28;20208;-50
2022/08/26 00:36:23;;;;;;;14.47;9.10;;;20.80;99.90;;;;;;5266017;28;20189;-50
2022/08/26 00:38:54;;;;;;;16.80;9.00;;;20.80;99.90;;;;;;5253515;28;20221;-49
2022/08/26 00:41:24;;;;;;;19.10;10.47;;;20.80;99.90;;;;;;5255904;28;20179;-50
2022/08/26 00:43:55;;;;;;;12.80;8.70;;;20.80;99.90;;;;;;5261078;28;20533;-49
2022/08/26 00:46:28;;;;;;;23.33;8.30;;;20.70;99.90;;;;;;5258774;28;20189;-48
2022/08/26 00:49:05;;;;;;;21.90;9.27;;;20.80;99.90;;;;;;5274619;28;20204;-49
2022/08/26 00:51:43;;;;;;;13.63;8.70;;;20.70;99.90;;;;;;5259846;28;20493;-50
2022/08/26 00:54:15;;;;;;;20.83;9.60;;;20.70;99.90;;;;;;5260750;28;20478;-50
2022/08/26 00:56:56;;;;;;;28.27;9.83;;;20.70;99.90;;;;;;5260051;28;20431;-50
2022/08/26 00:59:29;;;;;;;14.20;8.53;;;20.70;99.90;;;;;;5271794;28;20917;-49
2022/08/26 01:02:00;;;;;;;22.10;10.50;;;20.70;99.90;;;;;;5261069;28;20800;-50
2022/08/26 01:04:35;;;;;;;27.90;8.70;;;20.70;99.90;;;;;;5253813;28;20467;-50
2022/08/26 01:07:05;;;;;;;19.30;9.80;;;20.70;99.90;;;;;;5259796;28;20457;-49
2022/08/26 01:09:37;;;;;;;16.17;9.90;;;20.70;99.90;;;;;;5258972;28;20796;-49
2022/08/26 01:12:08;;;;;;;15.07;9.60;;;20.60;99.90;;;;;;5263925;28;20195;-50
2022/08/26 01:14:39;;;;;;;16.90;10.83;;;20.60;99.90;;;;;;5260086;28;20423;-50
2022/08/26 01:17:11;;;;;;;19.27;9.70;;;20.60;99.90;;;;;;5267887;28;20542;-50
2022/08/26 01:19:45;;;;;;;18.23;9.37;;;20.60;99.90;;;;;;5258326;28;20485;-50
2022/08/26 01:22:49;;;;;;;15.93;9.20;;;20.70;99.90;;;;;;5261679;28;20551;-49
2022/08/26 01:25:21;;;;;;;13.47;9.17;;;20.70;99.90;;;;;;5259260;28;20497;-50
2022/08/26 01:27:56;;;;;;;19.30;9.90;;;20.70;99.90;;;;;;5256910;28;20476;-50
2022/08/26 01:30:29;;;;;;;19.87;10.23;;;20.70;99.90;;;;;;5256776;28;20442;-50
2022/08/26 01:33:03;;;;;;;16.70;9.63;;;20.70;99.90;;;;;;5265709;28;20468;-51
2022/08/26 01:35:36;;;;;;;20.53;9.13;;;20.70;99.90;;;;;;5261300;28;20919;-49
2022/08/26 01:38:11;;;;;;;11.53;9.17;;;20.80;99.90;;;;;;5264630;28;20467;-50
2022/08/26 01:40:44;;;;;;;24.53;10.70;;;20.70;99.90;;;;;;5259727;28;20439;-50
2022/08/26 01:43:21;;;;;;;20.97;9.60;;;20.70;99.90;;;;;;5255492;28;20439;-50
2022/08/26 01:45:53;;;;;;;20.00;10.00;;;20.70;99.90;;;;;;5260416;28;20435;-50
2022/08/26 01:48:30;;;;;;;11.37;9.87;;;20.60;99.90;;;;;;5261511;28;20942;-49
2022/08/26 01:51:04;;;;;;;20.93;10.70;;;20.60;99.90;;;;;;5279412;28;21053;-50
2022/08/26 01:53:35;;;;;;;11.63;9.23;;;20.60;99.90;;;;;;5259122;28;20475;-50
2022/08/26 01:56:08;;;;;;;21.77;11.40;;;20.60;99.90;;;;;;5258389;28;20447;-50
2022/08/26 01:58:43;;;;;;;25.37;10.47;;;20.50;99.90;;;;;;5262036;28;20967;-50
2022/08/26 02:01:14;;;;;;;27.13;10.13;;;20.50;99.90;;;;;;5264688;28;20434;-49
2022/08/26 02:03:59;;;;;;;22.17;9.27;;;20.50;99.90;;;;;;5262470;28;20440;-50
2022/08/26 02:06:31;;;;;;;18.03;10.93;;;20.50;99.90;;;;;;5263255;28;20443;-49
2022/08/26 02:09:04;;;;;;;33.27;11.50;;;20.50;99.90;;;;;;5265534;28;21125;-49
2022/08/26 02:11:35;;;;;;;23.53;10.93;;;20.40;99.90;;;;;;5271966;28;20912;-50
2022/08/26 02:14:37;;;;;;;19.50;10.27;;;20.40;99.90;;;;;;5254362;28;20783;-50
2022/08/26 02:17:09;;;;;;;22.83;11.57;;;20.40;99.90;;;;;;5260361;28;21023;-50
2022/08/26 02:19:44;;;;;;;15.40;10.30;;;20.40;99.90;;;;;;5258519;28;20456;-51
2022/08/26 02:22:20;;;;;;;20.27;11.60;;;20.40;99.90;;;;;;5248790;28;20846;-50
2022/08/26 02:24:59;;;;;;;21.77;11.90;;;20.40;99.90;;;;;;5260030;28;20442;-50
2022/08/26 02:27:33;;;;;;;13.70;9.97;;;20.30;99.90;;;;;;5276035;28;20522;-51
2022/08/26 02:30:06;;;;;;;27.00;11.63;;;20.30;99.90;;;;;;5259728;28;20426;-50
2022/08/26 02:32:37;;;;;;;29.93;13.10;;;20.30;99.90;;;;;;5266731;28;20464;-50
2022/08/26 02:35:10;;;;;;;22.10;11.37;;;20.20;99.90;;;;;;5254970;28;20504;-51
2022/08/26 02:37:41;;;;;;;25.50;11.63;;;20.20;99.90;;;;;;5262636;28;21135;-50
2022/08/26 02:40:14;;;;;;;26.70;11.67;;;20.20;99.90;;;;;;5259183;28;20447;-51
2022/08/26 02:42:45;;;;;;;25.30;11.47;;;20.20;99.90;;;;;;5258162;28;20185;-51
2022/08/26 02:45:17;;;;;;;24.30;11.93;;;20.10;99.90;;;;;;5254091;28;20432;-50
2022/08/26 02:47:49;;;;;;;21.20;11.73;;;20.10;99.90;;;;;;5258829;28;20219;-48
2022/08/26 02:50:20;;;;;;;18.97;11.63;;;20.10;99.90;;;;;;5259964;28;20439;-50
2022/08/26 02:52:51;;;;;;;21.87;12.10;;;20.10;99.90;;;;;;5263033;28;20474;-49
2022/08/26 02:55:22;;;;;;;27.87;12.33;;;20.10;99.90;;;;;;5255263;28;20599;-50
2022/08/26 02:57:52;;;;;;;20.13;12.57;;;20.00;99.90;;;;;;5250373;28;20490;-49
2022/08/26 03:00:23;;;;;;;27.37;13.30;;;20.10;99.90;;;;;;5258911;28;20213;-49
2022/08/26 03:02:54;;;;;;;16.63;11.87;;;20.10;99.90;;;;;;5258384;28;20345;-50
2022/08/26 03:05:24;;;;;;;18.97;13.50;;;20.10;99.90;;;;;;5266589;28;20189;-50
2022/08/26 03:07:55;;;;;;;21.47;12.70;;;20.10;99.90;;;;;;5261856;28;20206;-49
2022/08/26 03:10:26;;;;;;;25.37;13.97;;;20.10;99.90;;;;;;5245292;28;20186;-50
2022/08/26 03:12:59;;;;;;;32.07;13.80;;;20.10;99.90;;;;;;5252159;28;20300;-49
2022/08/26 03:15:31;;;;;;;20.63;13.67;;;20.00;99.90;;;;;;5263518;28;20435;-50
2022/08/26 03:18:01;;;;;;;19.53;13.03;;;20.00;99.90;;;;;;5256172;28;20491;-49
2022/08/26 03:20:33;;;;;;;17.97;12.43;;;20.10;99.90;;;;;;5266529;28;20464;-50
2022/08/26 03:23:03;;;;;;;24.20;12.27;;;20.10;99.90;;;;;;5260386;28;20236;-50
2022/08/26 03:25:34;;;;;;;24.57;11.97;;;20.10;99.90;;;;;;5258169;28;20943;-50
2022/08/26 03:28:05;;;;;;;24.10;14.10;;;20.20;99.90;;;;;;5262332;22;20222;-47
2022/08/26 03:30:43;;;;;;;27.87;14.90;;;20.20;99.90;;;;;;5208044;28;20651;-48
2022/08/26 03:33:13;;;;;;;31.33;13.90;;;20.20;99.90;;;;;;5219490;28;20199;-50
2022/08/26 03:35:48;;;;;;;26.53;13.90;;;20.20;99.90;;;;;;5211861;28;20426;-48
2022/08/26 03:38:22;;;;;;;29.67;13.97;;;20.20;99.90;;;;;;5217337;28;20199;-47
2022/08/26 03:40:52;;;;;;;23.10;15.10;;;20.20;99.90;;;;;;5212532;28;20430;-48
2022/08/26 03:43:25;;;;;;;26.93;15.83;;;20.20;99.90;;;;;;5223503;28;20987;-48
2022/08/26 03:45:56;;;;;;;23.43;14.60;;;20.20;99.90;;;;;;5210143;28;20713;-47
2022/08/26 03:48:26;;;;;;;23.37;14.63;;;20.20;99.90;;;;;;5214508;28;20465;-48
2022/08/26 03:50:57;;;;;;;27.30;13.00;;;20.20;99.90;;;;;;5223043;28;20182;-53
2022/08/26 03:53:28;;;;;;;33.83;15.87;;;20.10;99.90;;;;;;5221718;28;20203;-48
2022/08/26 03:55:58;;;;;;;29.17;14.33;;;20.10;99.90;;;;;;5211271;28;20229;-48
2022/08/26 03:58:30;;;;;;;27.40;14.37;;;20.10;99.90;;;;;;5215143;28;20686;-50
2022/08/26 04:01:01;;;;;;;29.80;13.93;;;20.10;99.90;;;;;;5210582;28;20182;-48
2022/08/26 04:06:22;;;;;;;32.50;14.00;;;20.10;99.90;;;;;;5215883;28;20526;-49
2022/08/26 04:08:54;;;;;;;21.33;13.20;;;20.10;99.90;;;;;;5215443;28;20456;-48
2022/08/26 04:11:30;;;;;;;22.23;13.70;;;20.10;99.90;;;;;;5214373;28;20530;-49
2022/08/26 04:14:04;;;;;;;25.47;12.83;;;20.10;99.90;;;;;;5221102;28;20468;-50
2022/08/26 04:16:35;;;;;;;25.43;12.93;;;20.10;99.90;;;;;;5204260;28;20469;-49
2022/08/26 04:19:06;;;;;;;21.87;13.30;;;20.10;99.90;;;;;;5211990;28;20442;-49
2022/08/26 04:21:37;;;;;;;37.60;12.77;;;20.10;99.90;;;;;;5214562;28;20284;-48
2022/08/26 04:24:10;;;;;;;21.67;11.90;;;20.00;99.90;;;;;;5224610;28;20515;-48
2022/08/26 04:26:42;;;;;;;20.20;13.10;;;20.00;99.90;;;;;;5218791;28;20828;-52
2022/08/26 04:29:19;;;;;;;24.53;14.30;;;20.10;99.90;;;;;;5214134;28;20477;-48
2022/08/26 04:31:50;;;;;;;24.93;12.70;;;20.10;99.90;;;;;;5215342;28;20439;-49
2022/08/26 04:34:22;;;;;;;24.53;14.40;;;20.10;99.90;;;;;;5221381;28;20464;-52
2022/08/26 04:36:53;;;;;;;19.53;11.93;;;20.10;99.90;;;;;;5214838;28;20437;-48
2022/08/26 04:39:24;;;;;;;20.13;13.40;;;20.10;99.90;;;;;;5213861;28;20453;-50
2022/08/26 04:41:55;;;;;;;18.80;13.00;;;20.10;99.90;;;;;;5214457;28;20191;-47
2022/08/26 04:44:28;;;;;;;30.17;13.90;;;20.20;99.90;;;;;;5230297;28;20716;-48
2022/08/26 04:46:59;;;;;;;22.70;13.53;;;20.20;99.90;;;;;;5220629;28;20183;-48
2022/08/26 04:49:32;;;;;;;23.93;14.10;;;20.20;99.90;;;;;;5222007;28;20961;-48
2022/08/26 04:52:04;;;;;;;30.90;13.83;;;20.20;99.90;;;;;;5217704;28;20527;-49
2022/08/26 04:54:34;;;;;;;22.53;12.97;;;20.20;99.90;;;;;;5212960;28;20446;-51
2022/08/26 04:57:05;;;;;;;22.87;13.07;;;20.20;99.90;;;;;;5219853;28;20432;-49
2022/08/26 04:59:36;;;;;;;29.30;15.37;;;20.30;99.90;;;;;;5228193;28;20220;-48
2022/08/26 05:02:06;;;;;;;29.17;13.20;;;20.40;99.90;;;;;;5207132;28;20195;-51
2022/08/26 05:04:37;;;;;;;18.40;12.50;;;20.50;99.90;;;;;;5227194;28;20183;-48
2022/08/26 05:07:08;;;;;;;18.13;11.90;;;20.60;99.90;;;;;;5236182;28;20175;-48
2022/08/26 05:09:39;;;;;;;28.67;13.07;;;20.80;99.90;;;;;;5225863;28;20259;-48
2022/08/26 05:12:10;;;;;;;20.50;14.10;;;20.90;99.90;;;;;;5220267;28;20441;-47
2022/08/26 05:14:40;;;;;;;21.20;11.67;;;21.00;99.90;;;;;;5216098;28;20453;-48
2022/08/26 05:17:11;;;;;;;17.40;11.07;;;21.20;99.90;;;;;;5227605;28;20187;-47
2022/08/26 05:19:41;;;;;;;12.30;9.30;;;21.30;99.90;;;;;;5226510;28;20194;-50
2022/08/26 05:22:13;;;;;;;22.93;11.77;;;21.40;99.90;;;;;;5221636;28;20254;-48
2022/08/26 05:24:46;;;;;;;17.97;9.70;;;21.40;99.90;;;;;;5213331;28;20179;-50
2022/08/26 05:27:18;;;;;;;14.17;9.63;;;21.50;99.90;;;;;;5223452;28;20448;-49
2022/08/26 05:29:48;;;;;;;27.50;13.13;;;21.60;99.90;;;;;;5221052;28;20444;-49
2022/08/26 05:32:19;;;;;;;25.87;11.70;;;21.90;99.90;;;;;;5223370;28;20461;-47
2022/08/26 05:34:54;;;;;;;23.30;10.97;;;22.40;99.90;;;;;;5219536;28;20545;-48
2022/08/26 05:37:24;;;;;;;17.33;10.23;;;23.10;99.90;;;;;;5213115;28;20281;-48
2022/08/26 05:39:55;;;;;;;13.53;9.70;;;23.80;99.90;;;;;;5207982;28;20496;-51
2022/08/26 05:42:25;;;;;;;27.93;10.30;;;24.50;99.90;;;;;;5204667;28;20227;-48
2022/08/26 05:44:56;;;;;;;23.77;9.70;;;24.90;99.90;;;;;;5219635;28;20179;-53
2022/08/26 05:47:27;;;;;;;31.83;9.90;;;25.00;99.90;;;;;;5241994;28;20202;-49
2022/08/26 05:49:59;;;;;;;18.13;8.20;;;25.30;99.90;;;;;;5220423;28;20178;-48
2022/08/26 05:52:31;;;;;;;18.60;9.53;;;25.40;99.90;;;;;;5222381;28;20531;-48
2022/08/26 05:55:02;;;;;;;24.80;10.00;;;26.10;99.90;;;;;;5194244;28;20533;-51
2022/08/26 05:57:33;;;;;;;18.87;8.33;;;27.00;99.90;;;;;;5218376;28;20873;-48
2022/08/26 06:00:04;;;;;;;24.10;9.43;;;27.50;99.90;;;;;;5224163;28;20480;-49
2022/08/26 06:02:34;;;;;;;17.80;7.93;;;27.60;99.90;;;;;;5219430;28;20182;-46
2022/08/26 06:05:06;;;;;;;31.30;8.90;;;27.40;99.90;;;;;;5222544;28;20450;-48
2022/08/26 06:10:25;;;;;;;14.03;7.17;;;28.60;99.90;;;;;;5219204;28;20445;-49
2022/08/26 06:12:56;;;;;;;24.37;9.03;;;28.80;99.90;;;;;;5224445;28;20474;-51
2022/08/26 06:15:27;;;;;;;17.23;8.77;;;28.90;99.90;;;;;;5225287;28;20183;-53
2022/08/26 06:17:57;;;;;;;17.87;8.40;;;28.70;99.90;;;;;;5224669;28;20199;-48
2022/08/26 06:20:30;;;;;;;16.90;7.90;;;29.20;99.90;;;;;;5222789;28;20179;-50
2022/08/26 06:25:51;;;;;;;18.03;7.97;;;30.90;93.80;;;;;;5219219;28;20528;-49
2022/08/26 06:28:23;;;;;;;17.23;8.00;;;31.30;90.50;;;;;;5220052;28;21040;-50
2022/08/26 06:30:54;;;;;;;14.07;7.17;;;31.80;84.80;;;;;;5211840;28;20194;-50
2022/08/26 06:33:27;;;;;;;29.23;8.23;;;32.10;80.40;;;;;;5217082;28;20471;-51
2022/08/26 06:35:59;;;;;;;13.73;7.10;;;32.40;75.70;;;;;;5236671;28;20522;-49
2022/08/26 06:38:30;;;;;;;14.23;6.47;;;32.40;74.30;;;;;;5224611;28;20538;-48
2022/08/26 06:41:01;;;;;;;23.93;7.87;;;32.90;73.30;;;;;;5223785;28;20499;-49
2022/08/26 06:43:34;;;;;;;15.63;8.23;;;33.30;69.30;;;;;;5215306;28;20201;-49
2022/08/26 06:46:08;;;;;;;14.33;6.60;;;33.80;65.90;;;;;;5228166;28;20201;-51
2022/08/26 06:48:39;;;;;;;14.70;6.87;;;34.30;62.40;;;;;;5214280;28;20209;-51
2022/08/26 06:51:20;;;;;;;19.73;7.70;;;34.60;60.70;;;;;;5216199;28;20240;-49
2022/08/26 06:53:53;;;;;;;26.27;7.27;;;34.60;59.20;;;;;;5215466;28;20251;-50
2022/08/26 06:56:26;;;;;;;18.67;6.80;;;34.30;58.60;;;;;;5207423;28;20269;-48
2022/08/26 06:58:56;;;;;;;18.43;7.57;;;34.00;59.40;;;;;;5216146;28;20211;-49
2022/08/26 07:01:31;;;;;;;15.47;8.53;;;34.20;58.70;;;;;;5214014;28;20240;-48
2022/08/26 07:04:03;;;;;;;9.00;5.83;;;34.50;58.30;;;;;;5221714;28;20282;-50
2022/08/26 07:06:37;;;;;;;17.50;7.37;;;34.60;57.80;;;;;;5230376;28;20220;-50
2022/08/26 07:09:09;;;;;;;14.80;7.00;;;34.90;56.90;;;;;;5218758;28;20236;-50
2022/08/26 07:11:39;;;;;;;19.93;6.43;;;35.60;55.10;;;;;;5219701;28;20182;-50
2022/08/26 07:14:10;;;;;;;13.30;6.07;;;36.00;54.30;;;;;;5220556;28;20228;-48
2022/08/26 07:16:41;;;;;;;13.70;7.30;;;36.30;53.00;;;;;;5221031;28;20186;-50
2022/08/26 07:19:12;;;;;;;25.63;7.85;;;36.30;52.20;;;;;;5232822;28;20203;-50
2022/08/26 07:21:43;;;;;;;12.02;6.78;;;36.50;51.50;;;;;;5222221;28;20189;-49
2022/08/26 07:24:16;;;;;;;19.08;6.65;;;36.60;51.90;;;;;;5221372;28;20229;-50
2022/08/26 07:26:47;;;;;;;21.33;7.05;;;37.30;50.50;;;;;;5210007;28;20581;-49
2022/08/26 07:29:17;;;;;;;22.92;6.78;;;37.60;49.30;;;;;;5223778;28;20217;-49
2022/08/26 07:31:48;;;;;;;18.67;7.28;;;37.60;48.30;;;;;;5215158;28;20197;-49
2022/08/26 07:34:19;;;;;;;14.95;6.57;;;37.50;48.60;;;;;;5218151;28;20232;-48
2022/08/26 07:36:50;;;;;;;14.77;7.70;;;37.80;48.30;;;;;;5213103;28;20187;-47
2022/08/26 07:39:21;;;;;;;23.85;8.25;;;37.80;47.70;;;;;;5220888;28;20206;-48
2022/08/26 07:41:52;;;;;;;25.60;7.50;;;38.50;46.70;;;;;;5215763;28;20185;-49
2022/08/26 07:44:23;;;;;;;20.48;8.10;;;39.00;45.50;;;;;;5218153;28;20687;-47
2022/08/26 07:46:54;;;;;;;12.57;6.53;;;38.40;45.60;;;;;;5218808;28;20225;-50
2022/08/26 07:49:28;;;;;;;14.20;5.72;;;37.90;47.00;;;;;;5220614;28;20205;-48
2022/08/26 07:51:59;;;;;;;14.27;6.47;;;38.70;45.80;;;;;;5220600;28;20503;-49
2022/08/26 07:54:29;;;;;;;22.23;7.00;;;39.40;44.50;;;;;;5214639;28;20210;-50
2022/08/26 07:57:00;;;;;;;30.58;6.70;;;39.30;43.80;;;;;;5218507;28;20269;-47
2022/08/26 07:59:31;;;;;;;17.55;6.35;;;39.00;44.90;;;;;;5218257;28;20264;-49
2022/08/26 08:02:01;;;;;;;13.70;6.03;;;39.10;44.40;;;;;;5216788;28;20174;-49
2022/08/26 08:04:32;;;;;;;17.45;5.38;;;39.30;44.10;;;;;;5220057;28;20183;-48
2022/08/26 08:07:02;;;;;;;26.00;7.40;;;39.50;43.90;;;;;;5206445;28;21155;-49
2022/08/26 08:09:36;;;;;;;20.45;6.72;;;39.90;43.30;;;;;;5224725;28;20210;-51
2022/08/26 08:12:08;;;;;;;20.63;6.25;;;39.70;42.60;;;;;;5228310;28;20254;-49
2022/08/26 08:14:38;;;;;;;26.63;7.30;;;39.10;43.30;;;;;;5207166;28;20209;-49
2022/08/26 08:17:09;;;;;;;16.98;6.45;;;39.30;43.10;;;;;;5226286;28;20203;-49
2022/08/26 08:19:40;;;;;;;15.13;6.90;;;39.30;43.20;;;;;;5221105;28;20183;-50
2022/08/26 08:22:11;;;;;;;23.80;7.32;;;38.70;43.10;;;;;;5214871;28;20237;-49
2022/08/26 08:24:42;;;;;;;24.20;8.30;;;37.40;44.90;;;;;;5231605;28;20243;-49
2022/08/26 08:27:12;;;;;;;18.88;7.65;;;35.90;47.50;;;;;;5219121;28;20626;-50
2022/08/26 08:29:44;;;;;;;12.20;5.50;;;35.30;49.80;;;;;;5223459;28;20202;-49
2022/08/26 08:32:15;;;;;;;20.73;7.70;;;34.60;51.20;;;;;;5221067;28;22869;-48
2022/08/26 08:34:46;;;;;;;16.40;5.90;;;33.60;53.00;;;;;;5223486;28;20648;-48
2022/08/26 08:37:16;;;;;;;15.23;6.60;;;32.80;54.90;;;;;;5231563;28;20190;-51
2022/08/26 08:39:47;;;;;;;14.67;5.70;;;32.30;55.70;;;;;;5224089;28;20203;-51
2022/08/26 08:42:30;;;;;;;22.90;6.60;;;31.90;57.40;;;;;;5219680;28;20190;-52
2022/08/26 08:45:09;;;;;;;23.30;6.73;;;32.20;57.60;;;;;;5216209;28;20233;-52
2022/08/26 08:47:47;;;;;;;23.23;6.23;;;31.80;57.70;;;;;;5216417;28;20194;-47
2022/08/26 08:50:32;;;;;;;17.77;6.30;;;31.20;58.80;;;;;;5226472;28;20189;-47
2022/08/26 08:53:28;;;;;;;18.53;5.70;;;30.40;60.60;;;;;;5227576;28;20211;-48
2022/08/26 08:56:33;;;;;;;37.13;7.70;;;29.80;63.20;;;;;;5202332;28;20507;-50
2022/08/26 08:59:23;;;;;;;28.43;7.80;;;29.40;65.40;;;;;;5193604;28;20467;-48
2022/08/26 09:01:58;;;;;;;19.50;7.73;;;29.40;66.70;;;;;;5232383;28;20445;-49
2022/08/26 09:05:01;;;;;;;20.53;7.00;;;29.20;68.10;;;;;;5221553;28;20870;-48
2022/08/26 09:07:46;;;;;;;37.53;7.50;;;28.90;70.20;;;;;;5222410;28;20453;-47
2022/08/26 09:10:52;;;;;;;22.87;6.13;;;28.90;71.70;;;;;;5223747;28;20456;-48
2022/08/26 09:13:23;;;;;;;20.23;6.30;;;29.40;72.10;;;;;;5191985;28;20856;-49
2022/08/26 09:16:14;;;;;;;14.13;5.73;;;30.10;70.20;;;;;;5222524;28;20440;-49
2022/08/26 09:19:04;;;;;;;13.67;6.20;;;30.60;68.40;;;;;;5228032;28;20230;-49
2022/08/26 09:21:35;;;;;;;7.83;4.83;;;31.00;66.60;;;;;;5216130;28;20445;-48
2022/08/26 09:24:06;;;;;;;25.37;6.03;;;31.00;66.40;;;;;;5218350;28;20189;-49
2022/08/26 09:26:44;;;;;;;20.20;6.50;;;30.60;65.10;;;;;;5223963;28;20178;-48
2022/08/26 09:29:21;;;;;;;23.23;5.77;;;30.50;65.80;;;;;;5218497;28;20469;-49
2022/08/26 09:32:20;;;;;;;21.40;5.40;;;30.00;66.70;;;;;;5212132;28;20806;-48
2022/08/26 09:35:04;;;;;;;23.73;5.83;;;29.80;68.10;;;;;;5225811;28;20436;-50
2022/08/26 09:37:41;;;;;;;13.03;5.07;;;29.80;67.90;;;;;;5216124;28;21005;-49
2022/08/26 09:40:17;;;;;;;25.30;6.47;;;29.90;66.70;;;;;;5225053;28;20445;-49
2022/08/26 09:43:08;;;;;;;19.80;6.30;;;29.70;67.10;;;;;;5227731;28;20435;-49
2022/08/26 09:45:41;;;;;;;22.93;5.73;;;29.50;67.60;;;;;;5224687;28;20426;-48
2022/08/26 09:48:28;;;;;;;31.47;6.67;;;29.50;67.70;;;;;;5221892;28;20495;-50
2022/08/26 09:51:02;;;;;;;14.30;5.33;;;29.50;66.90;;;;;;5223839;28;20767;-47
2022/08/26 09:53:48;;;;;;;19.93;5.10;;;29.50;66.50;;;;;;5231062;28;20840;-49
2022/08/26 09:56:26;;;;;;;34.27;6.43;;;29.70;67.10;;;;;;5225377;28;20538;-49
2022/08/26 09:58:59;;;;;;;26.00;5.80;;;29.90;64.60;;;;;;5224294;28;20452;-48
2022/08/26 10:01:34;;;;;;;19.07;5.50;;;29.90;65.30;;;;;;5220359;28;20426;-48
2022/08/26 10:04:28;;;;;;;17.10;5.20;;;29.90;65.30;;;;;;5225902;28;20804;-51
2022/08/26 10:07:03;;;;;;;13.93;6.43;;;30.10;64.90;;;;;;5218177;28;20472;-50
2022/08/26 10:09:42;;;;;;;24.97;5.57;;;30.30;63.90;;;;;;5231858;28;20428;-48
2022/08/26 10:12:19;;;;;;;18.60;5.43;;;30.30;63.20;;;;;;5214070;28;20464;-52
2022/08/26 10:15:02;;;;;;;21.27;6.47;;;30.50;62.90;;;;;;5233561;28;20777;-49
2022/08/26 10:17:40;;;;;;;24.90;6.10;;;30.40;62.40;;;;;;5225098;28;20463;-49
2022/08/26 10:20:16;;;;;;;43.83;7.67;;;30.20;62.90;;;;;;5216333;28;20456;-50
2022/08/26 10:22:50;;;;;;;24.43;5.63;;;29.90;64.80;;;;;;5217345;28;21209;-48
2022/08/26 10:25:32;;;;;;;19.33;5.90;;;29.80;64.90;;;;;;5218955;28;21754;-48
2022/08/26 10:28:25;;;;;;;19.57;4.83;;;29.70;65.80;;;;;;5218122;28;20472;-49
2022/08/26 10:31:26;;;;;;;16.13;5.67;;;29.70;66.60;;;;;;5217001;28;20449;-48
2022/08/26 10:33:57;;;;;;;16.37;5.33;;;29.80;66.60;;;;;;5222465;28;20556;-51
2022/08/26 10:36:49;;;;;;;24.40;5.90;;;29.80;66.70;;;;;;5229749;28;20580;-54
2022/08/26 10:39:27;;;;;;;30.60;6.30;;;29.80;65.20;;;;;;5220406;28;20449;-47
2022/08/26 10:42:06;;;;;;;19.13;6.40;;;29.70;66.10;;;;;;5229679;28;20911;-47
2022/08/26 10:44:40;;;;;;;27.13;6.50;;;29.80;66.10;;;;;;5217484;28;20520;-49
2022/08/26 10:47:57;;;;;;;21.97;6.50;;;30.00;65.80;;;;;;5220730;28;20448;-49
2022/08/26 10:50:44;;;;;;;20.37;6.43;;;29.80;65.10;;;;;;5213809;28;20949;-47
2022/08/26 10:53:42;;;;;;;25.93;5.77;;;29.70;65.80;;;;;;5221794;28;20472;-47
2022/08/26 10:56:42;;;;;;;14.60;4.60;;;30.00;65.60;;;;;;5221478;28;20507;-49
2022/08/26 10:59:48;;;;;;;20.50;6.33;;;30.40;65.00;;;;;;5212431;28;20450;-49
2022/08/26 11:02:44;;;;;;;20.90;6.67;;;30.80;61.70;;;;;;5225589;28;20223;-47
2022/08/26 11:05:21;;;;;;;15.73;6.90;;;30.80;62.70;;;;;;5231785;28;20437;-48
2022/08/26 11:08:18;;;;;;;23.67;6.87;;;30.70;62.30;;;;;;5213825;28;20497;-47
2022/08/26 11:10:53;;;;;;;11.63;4.80;;;30.50;63.10;;;;;;5216734;28;20430;-49
2022/08/26 11:14:02;;;;;;;27.00;6.87;;;30.50;63.40;;;;;;5215502;28;20464;-48
2022/08/26 11:16:40;;;;;;;25.47;6.60;;;30.30;64.60;;;;;;5220782;28;20433;-51
2022/08/26 11:19:30;;;;;;;14.90;6.30;;;30.00;64.70;;;;;;5216732;28;20544;-47
2022/08/26 11:22:28;;;;;;;20.57;6.40;;;29.80;65.40;;;;;;5214040;28;20426;-48
2022/08/26 11:25:02;;;;;;;12.03;5.93;;;29.80;66.60;;;;;;5223784;28;20440;-48
2022/08/26 11:27:36;;;;;;;20.40;6.63;;;29.60;67.10;;;;;;5209934;28;20621;-47
2022/08/26 11:30:28;;;;;;;21.13;6.87;;;29.40;67.50;;;;;;5232225;28;20441;-47
2022/08/26 11:32:59;;;;;;;30.13;7.27;;;29.40;67.90;;;;;;5220366;28;20465;-48
2022/08/26 11:35:36;;;;;;;41.70;8.00;;;29.20;68.90;;;;;;5217564;28;20440;-47
2022/08/26 11:38:12;;;;;;;18.67;7.10;;;29.10;69.20;;;;;;5220643;28;20194;-47
2022/08/26 11:40:43;;;;;;;19.53;7.03;;;29.10;69.40;;;;;;5213828;28;20543;-47
2022/08/26 11:43:22;;;;;;;16.70;6.27;;;29.10;68.50;;;;;;5222362;28;20646;-48
2022/08/26 11:46:09;;;;;;;13.20;6.03;;;29.10;69.80;;;;;;5218016;28;20170;-47
2022/08/26 11:48:43;;;;;;;10.17;5.90;;;29.10;69.90;;;;;;5219982;28;20488;-48
2022/08/26 11:51:24;;;;;;;13.57;5.83;;;29.30;70.30;;;;;;5225307;28;20467;-47
2022/08/26 11:54:19;;;;;;;6.30;4.87;;;29.60;69.30;;;;;;5223774;28;20471;-48
2022/08/26 11:56:52;;;;;;;14.97;5.93;;;29.60;68.70;;;;;;5219818;28;20444;-50
2022/08/26 11:59:32;;;;;;;13.07;4.77;;;29.70;68.80;;;;;;5218803;28;20453;-47
2022/08/26 12:02:03;;;;;;;10.33;3.87;;;29.50;63.00;;;;;;5209880;28;20434;-47
2022/08/26 12:04:37;;;;;;;11.63;5.73;;;28.50;62.20;;;;;;5224129;28;20463;-50
2022/08/26 12:07:08;;;;;;;9.07;3.67;;;28.00;63.10;;;;;;5236299;28;20444;-46
2022/08/26 12:09:55;;;;;;;28.07;10.57;;;27.50;64.60;;;;;;5219426;28;20522;-48
2022/08/26 12:12:34;;;;;;;10.00;4.23;;;26.80;67.30;;;;;;5210516;28;20623;-52
2022/08/26 12:15:09;;;;;;;9.83;5.87;;;26.40;72.00;;;;;;5210563;28;20497;-48
2022/08/26 12:17:41;;;;;;;19.23;5.67;;;25.80;75.70;;;;;;5219626;28;20458;-48
2022/08/26 12:20:47;;;;;;;12.47;5.33;;;25.40;82.60;;;;;;5216220;28;20528;-49
2022/08/26 12:23:40;;;;;;;4.53;3.90;;;24.90;92.10;;;;;;5218219;28;20938;-47
2022/08/26 12:26:21;;;;;;;17.33;5.40;;;24.50;99.90;;;;;;5216339;28;20499;-46
2022/08/26 12:29:01;;;;;;;8.77;3.83;;;24.20;99.90;;;;;;5221538;28;21186;-46
2022/08/26 12:31:42;;;;;;;8.50;3.97;;;23.80;99.90;;;;;;5217441;28;20433;-51
2022/08/26 12:34:15;;;;;;;11.10;4.83;;;23.60;99.90;;;;;;5223080;28;21010;-47
2022/08/26 12:36:51;;;;;;;5.87;3.90;;;23.40;99.90;;;;;;5222055;28;20445;-48
2022/08/26 12:39:32;;;;;;;5.80;3.83;;;23.30;99.90;;;;;;5218624;28;20462;-47
2022/08/26 12:42:23;;;;;;;3.00;2.80;;;23.10;99.90;;;;;;5212526;28;20536;-47
2022/08/26 12:45:02;;;;;;;10.23;3.80;;;22.80;99.90;;;;;;5220888;28;20437;-48
2022/08/26 12:47:38;;;;;;;7.30;3.83;;;22.60;99.90;;;;;;5213186;28;20453;-49
2022/08/26 12:50:28;;;;;;;16.20;5.17;;;22.40;99.90;;;;;;5217120;28;20434;-48
2022/08/26 12:53:20;;;;;;;13.00;5.70;;;22.30;99.90;;;;;;5218843;28;20479;-49
2022/08/26 12:55:56;;;;;;;5.67;3.60;;;22.10;99.90;;;;;;5217831;28;20615;-49
2022/08/26 12:58:32;;;;;;;10.83;7.17;;;22.10;99.90;;;;;;5213370;28;21026;-48
2022/08/26 13:01:05;;;;;;;18.17;5.63;;;22.00;99.90;;;;;;5217503;28;20433;-49
2022/08/26 13:03:44;;;;;;;12.07;5.60;;;21.90;99.90;;;;;;5222305;28;20480;-50
2022/08/26 13:06:30;;;;;;;6.70;4.23;;;21.90;99.90;;;;;;5224700;28;20469;-49
2022/08/26 13:09:23;;;;;;;13.83;4.70;;;21.80;99.90;;;;;;5221435;28;20461;-53
2022/08/26 13:11:54;;;;;;;7.80;6.80;;;21.70;99.90;;;;;;5221639;28;20444;-50
2022/08/26 13:14:25;;;;;;;14.83;5.87;;;21.60;99.90;;;;;;5237447;28;20476;-49
2022/08/26 13:16:55;;;;;;;13.43;6.43;;;21.60;99.90;;;;;;5221610;28;20186;-48
2022/08/26 13:19:26;;;;;;;12.80;5.70;;;21.50;99.90;;;;;;5222083;28;20338;-51
2022/08/26 13:21:59;;;;;;;12.90;5.80;;;21.50;99.90;;;;;;5221148;28;20682;-47
2022/08/26 13:24:32;;;;;;;10.83;7.33;;;21.40;99.90;;;;;;5227564;28;20449;-51